Hauptseite
METAR-TAF:

METAR-TAF

Flughäfen :

Liverpool John Lennon Airport

Liverpool, England

Breite: 53-20N, Länge: 002-51W, Höhe: 26 m

Beobachtung

Neuester Wetterbericht von vor 34 Minuten, um 02:20 UTC
Wind 4 kt aus Süd/Südost
Temperatur 14°C
Luftfeuchtigkeit 77%
Luftdruck 1016 hPa
Sichtweite 10 km oder mehr
keine Wolken unter 1500 m und keine Kumulonimbus oder Gewitterwolken

METAR: EGGP 180220Z 15004KT CAVOK 14/10 Q1016

Zeit: 03:54 (02:54 UTC)

Prognose

Neuester Wetterbericht von vor 4 Stunden und 1 Minuten, um 22:53 UTC
Gültige Prognose vom 18 um 00 UTC bis 18 um 24 UTC
Wind 5 kt aus Süd
Sichtweite 10 km oder mehr
Leicht bewölkt in der Höhe von 4500 ft
Wahrscheinlichkeit 30% :
Zeitweise
vom 18 um 10 UTC bis 18 um 15 UTC
Sichtweite: 8000 m
Regenschauer

TAF: EGGP 172253Z 1800/1824 18005KT 9999 FEW045 PROB30 TEMPO 1810/1815 8000 -SHRA

Wetterbeobachtungen und Prognosen von mehr als 4000 Flughäfen (METAR und TAF Bericht).

Die verfügbaren Stationen werden durch gelbe und rote Markierungen auf der Karte dargestellt.

Führen Sie die Maus auf sie, um den Namen der Station zu sehen.

Darauf klicken, um die Beobachtung von Wetterbeobachtungen und Prognosen zu sehen.

Um die Karte zu ändern : klicken Sie auf den grünen Tasten mit einem schwarzen Kreuz Zum Vergrößern, auf den grünen Button mit einem Gedankenstrich zu verkleinern, oder auf die grünen Pfeile für benachbarte Karten.


METAR-TAF: